Time;durP1;ratioP1;P1;durP2;ratioP2;P2;SDS_P1;SDS_P2;PMS_P1;PMS_P2;Temp;Humidity;BMP_temperature;BMP_pressure;BME280_temperature;BME280_humidity;BME280_pressure;Samples;Min_cycle;Max_cycle;Signal;HPM_P1;HPM_P2
2022/10/07 00:01:31;;;;;;;;;;;;;;;9.39;100.00;102547.69;5047901;28;19943;-72
2022/10/07 00:03:57;;;;;;;;;;;;;;;9.38;100.00;102549.47;5047538;28;19960;-72
2022/10/07 00:06:22;;;;;;;;;;;;;;;9.37;100.00;102555.63;5048093;28;19932;-72
2022/10/07 00:08:50;;;;;;;;;;;;;;;9.37;100.00;102545.06;5046763;28;20391;-72
2022/10/07 00:11:16;;;;;;;;;;;;;;;9.40;100.00;102540.63;5062781;28;19929;-72
2022/10/07 00:13:42;;;;;;;;;;;;;;;9.41;100.00;102535.31;5045530;28;19943;-71
2022/10/07 00:16:12;;;;;;;;;;;;;;;9.41;100.00;102540.63;5046410;28;20418;-72
2022/10/07 00:18:38;;;;;;;;;;;;;;;9.40;100.00;102533.59;5048458;28;20015;-72
2022/10/07 00:21:07;;;;;;;;;;;;;;;9.40;100.00;102532.69;5038410;28;19924;-72
2022/10/07 00:23:33;;;;;;;;;;;;;;;9.41;100.00;102531.81;5045081;28;20403;-73
2022/10/07 00:25:59;;;;;;;;;;;;;;;9.43;100.00;102528.25;5045508;28;19932;-73
2022/10/07 00:28:25;;;;;;;;;;;;;;;9.44;100.00;102524.72;5043966;28;20579;-72
2022/10/07 00:30:57;;;;;;;;;;;;;;;9.45;100.00;102522.94;5045936;28;19933;-72
2022/10/07 00:33:22;;;;;;;;;;;;;;;9.46;100.00;102522.03;5040809;28;19933;-71
2022/10/07 00:35:48;;;;;;;;;;;;;;;9.45;100.00;102515.00;5039661;28;20272;-71
2022/10/07 00:38:13;;;;;;;;;;;;;;;9.45;100.00;102517.66;5044760;28;19980;-72
2022/10/07 00:40:40;;;;;;;;;;;;;;;9.47;100.00;102513.19;5038671;28;20315;-73
2022/10/07 00:43:38;;;;;;;;;;;;;;;9.48;100.00;102514.97;5043907;28;20179;-72
2022/10/07 00:46:10;;;;;;;;;;;;;;;9.47;100.00;102505.28;5034611;28;20299;-71
2022/10/07 00:48:35;;;;;;;;;;;;;;;9.47;100.00;102503.53;5044482;28;19928;-71
2022/10/07 00:51:01;;;;;;;;;;;;;;;9.49;100.00;102506.16;5045001;28;19928;-71
2022/10/07 00:53:27;;;;;;;;;;;;;;;9.46;100.00;102496.50;5044786;28;19966;-71
2022/10/07 00:55:54;;;;;;;;;;;;;;;9.46;100.00;102498.25;5043588;28;20251;-71
2022/10/07 00:58:20;;;;;;;;;;;;;;;9.43;100.00;102500.94;5044992;28;19933;-71
2022/10/07 01:00:46;;;;;;;;;;;;;;;9.40;100.00;102487.75;5043416;28;19925;-72
2022/10/07 01:03:11;;;;;;;;;;;;;;;9.37;100.00;102491.31;5045429;28;20209;-72
2022/10/07 01:05:36;;;;;;;;;;;;;;;9.33;100.00;102479.91;5043159;28;19924;-72
2022/10/07 01:08:02;;;;;;;;;;;;;;;9.32;100.00;102482.59;5045923;28;20044;-72
2022/10/07 01:10:30;;;;;;;;;;;;;;;9.30;100.00;102479.97;5042445;28;19994;-72
2022/10/07 01:13:01;;;;;;;;;;;;;;;9.29;100.00;102466.75;5045382;28;19931;-72
2022/10/07 01:15:30;;;;;;;;;;;;;;;9.25;100.00;102468.56;5046485;28;19924;-72
2022/10/07 01:18:05;;;;;;;;;;;;;;;9.22;100.00;102466.00;5047558;28;19947;-72
2022/10/07 01:20:33;;;;;;;;;;;;;;;9.21;100.00;102458.97;5044324;28;19935;-72
2022/10/07 01:23:05;;;;;;;;;;;;;;;9.19;100.00;102461.63;5044280;28;20023;-72
2022/10/07 01:25:40;;;;;;;;;;;;;;;9.17;100.00;102459.88;5077272;28;19931;-72
2022/10/07 01:28:07;;;;;;;;;;;;;;;9.15;100.00;102454.63;5043956;28;20410;-72
2022/10/07 01:30:33;;;;;;;;;;;;;;;9.15;100.00;102448.47;5043370;28;19974;-73
2022/10/07 01:33:01;;;;;;;;;;;;;;;9.12;100.00;102449.38;5059739;28;20272;-71
2022/10/07 01:35:31;;;;;;;;;;;;;;;9.09;100.00;102442.38;5043841;28;20448;-72
2022/10/07 01:37:59;;;;;;;;;;;;;;;9.08;100.00;102437.97;5042956;28;19932;-72
2022/10/07 01:40:31;;;;;;;;;;;;;;;9.07;100.00;102428.31;5059822;28;19924;-72
2022/10/07 01:42:56;;;;;;;;;;;;;;;9.07;100.00;102427.44;5045301;28;20350;-72
2022/10/07 01:45:22;;;;;;;;;;;;;;;9.06;100.00;102428.31;5042580;28;19948;-72
2022/10/07 01:47:48;;;;;;;;;;;;;;;9.04;100.00;102422.19;5034541;28;19928;-72
2022/10/07 01:50:14;;;;;;;;;;;;;;;9.04;100.00;102423.06;5045332;28;19932;-72
2022/10/07 01:52:58;;;;;;;;;;;;;;;9.04;100.00;102415.13;5046530;28;19928;-71
2022/10/07 01:55:27;;;;;;;;;;;;;;;9.04;100.00;102403.72;5048676;28;19924;-71
2022/10/07 01:58:05;;;;;;;;;;;;;;;9.03;100.00;102413.38;5047863;28;19986;-72
2022/10/07 02:00:30;;;;;;;;;;;;;;;9.00;100.00;102408.16;5060800;28;20387;-73
2022/10/07 02:03:16;;;;;;;;;;;;;;;9.00;100.00;102394.06;5049504;28;19935;-72
2022/10/07 02:05:47;;;;;;;;;;;;;;;8.99;100.00;102387.91;5049376;28;19925;-73
2022/10/07 02:08:16;;;;;;;;;;;;;;;8.99;100.00;102389.69;5048330;28;19937;-72
2022/10/07 02:11:00;;;;;;;;;;;;;;;8.99;100.00;102381.75;5046905;28;19924;-72
2022/10/07 02:13:44;;;;;;;;;;;;;;;8.98;100.00;102375.59;5063139;28;19924;-72
2022/10/07 02:16:24;;;;;;;;;;;;;;;8.98;100.00;102375.59;5047462;28;19920;-72
2022/10/07 02:18:50;;;;;;;;;;;;;;;8.98;100.00;102367.66;5050352;28;19931;-72
2022/10/07 02:21:17;;;;;;;;;;;;;;;8.98;100.00;102365.03;5063713;28;19938;-72
2022/10/07 02:23:42;;;;;;;;;;;;;;;8.98;100.00;102364.16;5047173;28;20078;-72
2022/10/07 02:26:09;;;;;;;;;;;;;;;8.98;100.00;102351.81;5038735;28;19935;-72
2022/10/07 02:28:34;;;;;;;;;;;;;;;9.00;100.00;102359.72;5046051;28;19932;-72
2022/10/07 02:31:00;;;;;;;;;;;;;;;8.99;100.00;102350.91;5047561;28;19925;-72
2022/10/07 02:33:26;;;;;;;;;;;;;;;8.99;100.00;102343.00;5048935;28;19952;-72
2022/10/07 02:35:53;;;;;;;;;;;;;;;8.99;100.00;102340.34;5048377;28;19933;-72
2022/10/07 02:38:19;;;;;;;;;;;;;;;8.99;100.00;102339.50;5046825;28;19928;-72
2022/10/07 02:40:47;;;;;;;;;;;;;;;8.98;100.00;102335.97;5044391;28;20485;-73
2022/10/07 02:43:27;;;;;;;;;;;;;;;9.00;100.00;102330.66;5064656;28;20520;-72
2022/10/07 02:46:00;;;;;;;;;;;;;;;8.97;100.00;102328.94;5046922;28;19929;-72
2022/10/07 02:48:46;;;;;;;;;;;;;;;8.95;100.00;102323.66;5062919;28;19948;-72
2022/10/07 02:51:17;;;;;;;;;;;;;;;8.92;100.00;102317.56;5055263;28;19940;-72
2022/10/07 02:53:42;;;;;;;;;;;;;;;8.90;100.00;102319.38;5047485;28;19932;-72
2022/10/07 02:56:08;;;;;;;;;;;;;;;8.87;100.00;102312.34;5045927;28;19932;-72
2022/10/07 02:58:33;;;;;;;;;;;;;;;8.86;100.00;102312.38;5048045;28;19925;-72
2022/10/07 03:00:59;;;;;;;;;;;;;;;8.83;100.00;102311.53;5046771;28;20320;-72
2022/10/07 03:03:25;;;;;;;;;;;;;;;8.83;100.00;102308.88;5030566;28;19928;-71
2022/10/07 03:05:50;;;;;;;;;;;;;;;8.81;100.00;102310.69;5045865;28;20485;-73
2022/10/07 03:08:16;;;;;;;;;;;;;;;8.79;100.00;102307.19;5030470;28;19970;-72
2022/10/07 03:10:41;;;;;;;;;;;;;;;8.78;100.00;102301.94;5047290;28;19925;-72
2022/10/07 03:13:10;;;;;;;;;;;;;;;8.77;100.00;102306.34;5079257;28;19932;-73
2022/10/07 03:15:36;;;;;;;;;;;;;;;8.76;100.00;102298.47;5046813;28;19929;-72
2022/10/07 03:18:02;;;;;;;;;;;;;;;8.74;100.00;102297.59;5047785;28;20337;-73
2022/10/07 03:20:29;;;;;;;;;;;;;;;8.72;100.00;102291.47;5048499;28;19939;-73
2022/10/07 03:22:54;;;;;;;;;;;;;;;8.70;100.00;102294.13;5048723;28;19935;-73
2022/10/07 03:25:20;;;;;;;;;;;;;;;8.67;100.00;102292.38;5048966;28;20292;-72
2022/10/07 03:27:47;;;;;;;;;;;;;;;8.67;100.00;102288.91;5048309;28;19978;-73
2022/10/07 03:30:12;;;;;;;;;;;;;;;8.66;100.00;102292.44;5045606;28;20628;-73
2022/10/07 03:32:38;;;;;;;;;;;;;;;8.65;100.00;102290.66;5043997;28;19933;-72
2022/10/07 03:35:04;;;;;;;;;;;;;;;8.65;100.00;102285.38;5046849;28;20607;-73
2022/10/07 03:37:29;;;;;;;;;;;;;;;8.64;100.00;102281.00;5046223;28;20400;-73
2022/10/07 03:39:55;;;;;;;;;;;;;;;8.62;100.00;102277.50;5044851;28;20272;-73
2022/10/07 03:42:20;;;;;;;;;;;;;;;8.61;100.00;102274.00;5047842;28;19986;-73
2022/10/07 03:44:48;;;;;;;;;;;;;;;8.61;100.00;102278.41;5046320;28;20406;-73
2022/10/07 03:47:16;;;;;;;;;;;;;;;8.59;100.00;102274.91;5047743;28;19940;-71
2022/10/07 03:49:42;;;;;;;;;;;;;;;8.56;100.00;102275.84;5045684;28;19969;-71
2022/10/07 03:52:07;;;;;;;;;;;;;;;8.56;100.00;102265.28;5048226;28;19955;-72
2022/10/07 03:54:33;;;;;;;;;;;;;;;8.56;100.00;102268.78;5045270;28;19939;-72
2022/10/07 03:56:58;;;;;;;;;;;;;;;8.56;100.00;102265.28;5077802;28;19932;-72
2022/10/07 03:59:24;;;;;;;;;;;;;;;8.55;100.00;102269.69;5047013;28;19935;-72
2022/10/07 04:01:49;;;;;;;;;;;;;;;8.53;100.00;102266.19;5045787;28;20480;-72
2022/10/07 04:04:14;;;;;;;;;;;;;;;8.50;100.00;102263.56;5043928;28;20296;-73
2022/10/07 04:06:40;;;;;;;;;;;;;;;8.51;100.00;102267.06;5045876;28;20020;-72
2022/10/07 04:09:05;;;;;;;;;;;;;;;8.49;100.00;102255.69;5060424;28;21540;-72
2022/10/07 04:11:31;;;;;;;;;;;;;;;8.48;100.00;102253.91;5045732;28;20024;-72
2022/10/07 04:13:59;;;;;;;;;;;;;;;8.46;100.00;102243.41;5046798;28;20066;-72
2022/10/07 04:16:25;;;;;;;;;;;;;;;8.42;100.00;102247.84;5045945;28;19989;-72
2022/10/07 04:18:52;;;;;;;;;;;;;;;8.41;100.00;102245.22;5046006;28;19932;-72
2022/10/07 04:21:18;;;;;;;;;;;;;;;8.41;100.00;102245.22;5046064;28;19932;-72
2022/10/07 04:23:43;;;;;;;;;;;;;;;8.39;100.00;102242.59;5062270;28;20401;-72
2022/10/07 04:26:09;;;;;;;;;;;;;;;8.38;100.00;102239.97;5045590;28;19928;-72
2022/10/07 04:28:35;;;;;;;;;;;;;;;8.37;100.00;102239.09;5028051;28;19932;-73
2022/10/07 04:31:04;;;;;;;;;;;;;;;8.37;100.00;102238.22;5044176;28;19925;-73
2022/10/07 04:33:30;;;;;;;;;;;;;;;8.36;100.00;102236.47;5061956;28;20583;-73
2022/10/07 04:35:55;;;;;;;;;;;;;;;8.35;100.00;102229.47;5045204;28;19943;-73
2022/10/07 04:38:31;;;;;;;;;;;;;;;8.34;100.00;102236.50;5046363;27;19935;-72
2022/10/07 04:40:57;;;;;;;;;;;;;;;8.33;100.00;102232.13;5078251;28;20371;-73
2022/10/07 04:43:23;;;;;;;;;;;;;;;8.33;100.00;102231.25;5027403;28;20457;-72
2022/10/07 04:45:52;;;;;;;;;;;;;;;8.31;100.00;102227.75;5058592;28;20312;-72
2022/10/07 04:48:18;;;;;;;;;;;;;;;8.29;100.00;102220.72;5042476;28;19950;-72
2022/10/07 04:50:44;;;;;;;;;;;;;;;8.28;100.00;102219.00;5078573;28;20019;-72
2022/10/07 04:53:10;;;;;;;;;;;;;;;8.29;100.00;102209.31;5031840;28;19932;-72
2022/10/07 04:55:36;;;;;;;;;;;;;;;8.32;100.00;102216.31;5045186;28;20396;-72
2022/10/07 04:58:01;;;;;;;;;;;;;;;8.31;100.00;102217.19;5079312;28;19925;-72
2022/10/07 05:00:27;;;;;;;;;;;;;;;8.34;100.00;102222.44;5042568;28;19995;-71
2022/10/07 05:02:53;;;;;;;;;;;;;;;8.35;100.00;102216.28;5045864;28;19933;-72
2022/10/07 05:05:21;;;;;;;;;;;;;;;8.38;100.00;102210.94;5061692;28;20029;-72
2022/10/07 05:07:53;;;;;;;;;;;;;;;8.40;100.00;102206.53;5046493;28;19933;-72
2022/10/07 05:10:19;;;;;;;;;;;;;;;8.42;100.00;102204.72;5040687;28;19929;-72
2022/10/07 05:12:44;;;;;;;;;;;;;;;8.43;100.00;102202.06;5041341;28;19936;-72
2022/10/07 05:15:09;;;;;;;;;;;;;;;8.46;100.00;102202.91;5046507;28;19998;-72
2022/10/07 05:17:35;;;;;;;;;;;;;;;8.46;100.00;102203.81;5047657;28;20016;-72
2022/10/07 05:20:03;;;;;;;;;;;;;;;8.46;100.00;102198.53;5045013;28;20028;-72
2022/10/07 05:22:30;;;;;;;;;;;;;;;8.46;100.00;102195.88;5047141;28;20097;-72
2022/10/07 05:24:55;;;;;;;;;;;;;;;8.47;100.00;102202.00;5046012;28;20396;-72
2022/10/07 05:27:21;;;;;;;;;;;;;;;8.47;100.00;102194.09;5010785;28;20003;-72
2022/10/07 05:29:46;;;;;;;;;;;;;;;8.49;100.00;102200.25;5046169;28;20429;-72
2022/10/07 05:32:12;;;;;;;;;;;;;;;8.50;100.00;102192.28;5041240;28;20341;-72
2022/10/07 05:34:37;;;;;;;;;;;;;;;8.51;100.00;102188.78;5045337;28;19932;-72
2022/10/07 05:37:03;;;;;;;;;;;;;;;8.51;100.00;102188.78;5044750;28;19933;-72
2022/10/07 05:39:28;;;;;;;;;;;;;;;8.55;100.00;102189.59;5044976;28;19933;-73
2022/10/07 05:41:54;;;;;;;;;;;;;;;8.55;100.00;102182.56;5045386;28;20002;-73
2022/10/07 05:44:19;;;;;;;;;;;;;;;8.56;100.00;102186.94;5042622;28;20031;-73
2022/10/07 05:46:45;;;;;;;;;;;;;;;8.59;100.00;102195.72;5041315;28;20921;-72
2022/10/07 05:49:11;;;;;;;;;;;;;;;8.60;100.00;102177.22;5033982;28;19928;-72
2022/10/07 05:51:36;;;;;;;;;;;;;;;8.63;100.00;102189.50;5019711;28;19982;-72
2022/10/07 05:54:02;;;;;;;;;;;;;;;8.64;100.00;102189.47;5030495;28;20458;-72
2022/10/07 05:56:27;;;;;;;;;;;;;;;8.67;100.00;102183.28;5031107;28;19963;-72
2022/10/07 05:58:53;;;;;;;;;;;;;;;8.68;100.00;102182.38;5033036;28;19933;-72
2022/10/07 06:01:20;;;;;;;;;;;;;;;8.71;100.00;102181.47;5027304;28;19978;-72
2022/10/07 06:03:52;;;;;;;;;;;;;;;8.72;100.00;102177.91;5033497;28;19925;-73
2022/10/07 06:06:18;;;;;;;;;;;;;;;8.73;100.00;102182.31;5029650;28;20285;-73
2022/10/07 06:08:43;;;;;;;;;;;;;;;8.74;100.00;102179.66;5032027;28;19925;-72
2022/10/07 06:13:54;;;;;;;;;;;;;;;8.79;100.00;102184.84;5028191;28;20014;-71
2022/10/07 06:16:19;;;;;;;;;;;;;;;8.82;100.00;102184.78;5050602;28;19929;-72
2022/10/07 06:18:46;;;;;;;;;;;;;;;8.83;100.00;102189.19;5050701;28;19960;-72
2022/10/07 06:21:12;;;;;;;;;;;;;;;8.86;100.00;102189.13;5027508;28;19933;-71
2022/10/07 06:23:37;;;;;;;;;;;;;;;8.89;100.00;102186.41;5025882;28;19931;-71
2022/10/07 06:26:03;;;;;;;;;;;;;;;8.92;100.00;102193.41;5026823;28;19936;-72
2022/10/07 06:28:32;;;;;;;;;;;;;;;8.93;100.00;102189.91;5032878;28;19960;-71
2022/10/07 06:30:58;;;;;;;;;;;;;;;8.95;100.00;102183.66;5032264;28;19976;-71
2022/10/07 06:33:23;;;;;;;;;;;;;;;8.99;100.00;102179.22;5049150;28;20008;-72
2022/10/07 06:35:48;;;;;;;;;;;;;;;9.03;100.00;102186.19;5032941;28;20285;-72
2022/10/07 06:38:14;;;;;;;;;;;;;;;9.07;100.00;102190.53;5032942;28;19933;-71
2022/10/07 06:40:39;;;;;;;;;;;;;;;9.13;100.00;102194.84;5016867;28;19933;-71
2022/10/07 06:43:05;;;;;;;;;;;;;;;9.16;100.00;102181.56;5027906;28;19929;-71
2022/10/07 06:45:31;;;;;;;;;;;;;;;9.20;100.00;102187.66;5049658;28;20612;-72
2022/10/07 06:47:56;;;;;;;;;;;;;;;9.22;100.00;102186.72;5029860;28;19936;-72
2022/10/07 06:50:22;;;;;;;;;;;;;;;9.26;100.00;102191.97;5027421;28;20323;-71
2022/10/07 06:52:47;;;;;;;;;;;;;;;9.29;100.00;102190.13;5007997;28;19978;-72
2022/10/07 06:55:13;;;;;;;;;;;;;;;9.33;100.00;102193.59;5022481;28;19932;-71
2022/10/07 06:57:39;;;;;;;;;;;;;;;9.36;100.00;102189.13;5033350;28;20056;-71
2022/10/07 07:00:05;;;;;;;;;;;;;;;9.41;100.00;102190.81;5027121;28;20383;-71
2022/10/07 07:02:31;;;;;;;;;;;;;;;9.45;100.00;102189.84;5027370;28;19921;-71
2022/10/07 07:04:57;;;;;;;;;;;;;;;9.50;100.00;102191.50;5013097;28;21715;-71
2022/10/07 07:07:23;;;;;;;;;;;;;;;9.54;100.00;102197.63;5031604;28;19933;-73
2022/10/07 07:09:48;;;;;;;;;;;;;;;9.59;100.00;102189.59;5026724;28;19936;-72
2022/10/07 07:12:14;;;;;;;;;;;;;;;9.62;100.00;102190.41;5033494;28;20527;-72
2022/10/07 07:14:40;;;;;;;;;;;;;;;9.67;100.00;102181.47;5031556;28;20615;-72
2022/10/07 07:17:05;;;;;;;;;;;;;;;9.72;100.00;102179.63;5029134;28;20372;-72
2022/10/07 07:19:31;;;;;;;;;;;;;;;9.78;100.00;102182.16;5030985;28;20284;-72
2022/10/07 07:21:56;;;;;;;;;;;;;;;9.84;100.00;102195.25;5027793;28;19974;-72
2022/10/07 07:24:21;;;;;;;;;;;;;;;9.90;100.00;102189.84;5032044;28;19925;-72
2022/10/07 07:26:47;;;;;;;;;;;;;;;9.96;100.00;102187.97;5032560;28;19992;-71
2022/10/07 07:29:13;;;;;;;;;;;;;;;10.03;100.00;102184.28;5031759;28;20032;-72
2022/10/07 07:31:38;;;;;;;;;;;;;;;10.10;100.00;102180.59;5021045;28;19931;-71
2022/10/07 07:34:10;;;;;;;;;;;;;;;10.18;100.00;102181.28;5026295;28;19925;-72
2022/10/07 07:36:36;;;;;;;;;;;;;;;10.26;100.00;102174.94;5032326;28;19933;-72
2022/10/07 07:39:08;;;;;;;;;;;;;;;10.36;100.00;102171.19;5010150;28;19925;-71
2022/10/07 07:41:35;;;;;;;;;;;;;;;10.44;100.00;102174.56;5048524;28;19964;-72
2022/10/07 07:44:02;;;;;;;;;;;;;;;10.52;100.00;102165.56;5047606;28;19931;-71
2022/10/07 07:46:28;;;;;;;;;;;;;;;10.61;100.00;102157.38;5030638;28;20087;-71
2022/10/07 07:48:54;;;;;;;;;;;;;;;10.69;100.00;102166.00;5025470;28;20307;-70
2022/10/07 07:51:19;;;;;;;;;;;;;;;10.77;100.00;102162.28;5011812;28;19925;-71
2022/10/07 07:53:45;;;;;;;;;;;;;;;10.83;100.00;102165.66;5032894;28;19932;-71
2022/10/07 07:56:11;;;;;;;;;;;;;;;10.90;100.00;102166.38;5027531;28;19932;-72
2022/10/07 07:58:38;;;;;;;;;;;;;;;10.98;100.00;102163.53;5026589;28;20357;-71
2022/10/07 08:01:04;;;;;;;;;;;;;;;11.06;100.00;102161.53;5030640;28;20028;-72
2022/10/07 08:03:30;;;;;;;;;;;;;;;11.16;100.00;102163.97;5046644;28;19940;-72
2022/10/07 08:05:58;;;;;;;;;;;;;;;11.24;100.00;102161.97;5023463;28;19964;-72
2022/10/07 08:08:24;;;;;;;;;;;;;;;11.33;100.00;102158.19;5029661;28;20072;-71
2022/10/07 08:10:49;;;;;;;;;;;;;;;11.44;100.00;102149.94;5014028;28;19931;-72
2022/10/07 08:13:14;;;;;;;;;;;;;;;11.54;100.00;102146.97;5028766;28;19935;-72
2022/10/07 08:15:40;;;;;;;;;;;;;;;11.61;100.00;102141.50;5029389;28;20415;-71
2022/10/07 08:18:07;;;;;;;;;;;;;;;11.66;100.00;102150.22;5034928;28;19936;-71
2022/10/07 08:20:33;;;;;;;;;;;;;;;11.72;100.00;102143.84;5031412;28;19933;-72
2022/10/07 08:22:58;;;;;;;;;;;;;;;11.77;100.00;102142.78;5032233;28;20554;-72
2022/10/07 08:25:24;;;;;;;;;;;;;;;11.82;100.00;102139.97;5032584;28;19929;-72
2022/10/07 08:27:50;;;;;;;;;;;;;;;11.86;100.00;102143.41;5032180;28;19929;-72
2022/10/07 08:30:15;;;;;;;;;;;;;;;11.91;100.00;102149.47;5025045;28;19933;-72
2022/10/07 08:32:41;;;;;;;;;;;;;;;11.97;100.00;102137.81;5029511;28;19924;-72
2022/10/07 08:35:06;;;;;;;;;;;;;;;12.01;100.00;102128.81;5031952;28;20005;-72
2022/10/07 08:37:32;;;;;;;;;;;;;;;12.05;100.00;102134.00;5031422;28;20421;-72
2022/10/07 08:39:57;;;;;;;;;;;;;;;12.12;100.00;102131.16;5028894;28;19995;-72
2022/10/07 08:42:41;;;;;;;;;;;;;;;12.15;100.00;102117.81;5030879;28;19929;-72
2022/10/07 08:45:09;;;;;;;;;;;;;;;12.22;100.00;102124.66;5013560;28;19978;-72
2022/10/07 08:47:42;;;;;;;;;;;;;;;12.28;100.00;102120.94;5008954;28;19932;-71
2022/10/07 08:50:34;;;;;;;;;;;;;;;12.34;100.00;102132.22;5023724;28;19932;-71
2022/10/07 08:53:01;;;;;;;;;;;;;;;12.40;100.00;102124.97;5029261;28;19978;-72
2022/10/07 08:55:27;;;;;;;;;;;;;;;12.46;100.00;102124.75;5009745;28;20054;-72
2022/10/07 08:58:03;;;;;;;;;;;;;;;12.52;100.00;102108.63;5029744;28;19932;-71
2022/10/07 09:00:31;;;;;;;;;;;;;;;12.56;100.00;102117.34;5029984;28;19925;-71
2022/10/07 09:03:06;;;;;;;;;;;;;;;12.61;100.00;102118.06;5029404;28;19946;-72
2022/10/07 09:05:37;;;;;;;;;;;;;;;12.67;100.00;102115.22;5023601;28;19925;-71
2022/10/07 09:08:10;;;;;;;;;;;;;;;12.73;100.00;102108.81;5030035;28;20465;-72
2022/10/07 09:10:43;;;;;;;;;;;;;;;12.79;100.00;102103.28;5021950;28;19929;-72
2022/10/07 09:13:13;;;;;;;;;;;;;;;12.84;100.00;102103.13;5007233;28;20003;-71
2022/10/07 09:15:57;;;;;;;;;;;;;;;12.89;100.00;102088.78;5020355;28;20363;-72
2022/10/07 09:18:34;;;;;;;;;;;;;;;12.94;100.00;102085.06;5028459;28;20422;-72
2022/10/07 09:20:59;;;;;;;;;;;;;;;12.91;100.00;102088.69;5024748;28;21534;-72
2022/10/07 09:23:28;;;;;;;;;;;;;;;12.90;100.00;102090.50;5024908;28;20718;-72
2022/10/07 09:25:53;;;;;;;;;;;;;;;12.88;100.00;102087.03;5028464;28;19952;-71
2022/10/07 09:28:20;;;;;;;;;;;;;;;12.93;100.00;102093.97;5028597;28;19945;-71
2022/10/07 09:30:46;;;;;;;;;;;;;;;12.95;100.00;102085.00;5028938;28;19925;-71
2022/10/07 09:33:15;;;;;;;;;;;;;;;12.97;100.00;102085.81;5033418;28;20300;-72
2022/10/07 09:35:41;;;;;;;;;;;;;;;12.99;100.00;102083.13;5029908;28;20507;-72
2022/10/07 09:38:08;;;;;;;;;;;;;;;13.01;100.00;102083.91;5034735;28;19933;-71
2022/10/07 09:41:13;;;;;;;;;;;;;;;13.01;100.00;102079.47;5025369;28;19972;-71
2022/10/07 09:43:23;;;;;;;;;;;;;;;13.06;100.00;102087.28;5030575;28;19935;-71
2022/10/07 09:45:48;;;;;;;;;;;;;;;13.14;100.00;102079.91;5051229;28;19928;-71
2022/10/07 09:48:20;;;;;;;;;;;;;;;13.26;100.00;102075.94;5052057;28;19968;-71
2022/10/07 09:50:46;;;;;;;;;;;;;;;13.36;100.00;102063.16;5029638;28;19924;-71
2022/10/07 09:53:15;;;;;;;;;;;;;;;13.40;100.00;102070.09;5028900;28;20437;-72
2022/10/07 09:55:41;;;;;;;;;;;;;;;13.39;100.00;102070.13;5034241;28;19928;-71
2022/10/07 09:58:18;;;;;;;;;;;;;;;13.37;100.00;102067.56;5034082;28;19929;-71
2022/10/07 10:00:45;;;;;;;;;;;;;;;13.37;100.00;102072.88;5032940;28;19929;-72
2022/10/07 10:03:10;;;;;;;;;;;;;;;13.40;100.00;102067.41;5029036;28;19933;-72
2022/10/07 10:05:38;;;;;;;;;;;;;;;13.49;100.00;102073.34;5051843;28;20039;-72
2022/10/07 10:08:04;;;;;;;;;;;;;;;13.57;100.00;102055.31;5050080;28;20311;-72
2022/10/07 10:10:30;;;;;;;;;;;;;;;13.63;100.00;102048.88;5033593;28;19929;-72
2022/10/07 10:12:56;;;;;;;;;;;;;;;13.68;100.00;102049.56;5051252;28;19929;-72
2022/10/07 10:15:21;;;;;;;;;;;;;;;13.73;100.00;102050.22;5036795;28;19920;-72
2022/10/07 10:17:47;;;;;;;;;;;;;;;13.80;100.00;102040.22;5033895;28;19924;-72
2022/10/07 10:20:29;;;;;;;;;;;;;;;13.84;100.00;102040.03;5002993;28;19947;-71
2022/10/07 10:22:55;;;;;;;;;;;;;;;13.91;100.00;102032.69;5028987;28;19936;-72
2022/10/07 10:28:44;;;;;;;;;;;;;;;14.07;100.00;102032.03;5020295;28;19929;-72
2022/10/07 10:31:23;;;;;;;;;;;;;;;14.17;100.00;102020.06;5025306;28;20044;-72
2022/10/07 10:34:14;;;;;;;;;;;;;;;14.24;100.00;102023.34;5012509;28;19931;-71
2022/10/07 10:36:41;;;;;;;;;;;;;;;14.32;100.00;102020.38;5030330;28;19933;-72
2022/10/07 10:39:25;;;;;;;;;;;;;;;14.35;100.00;102009.56;5028457;28;20088;-72
2022/10/07 10:41:59;;;;;;;;;;;;;;;14.38;100.00;102004.97;5031688;28;19924;-72
2022/10/07 10:44:31;;;;;;;;;;;;;;;14.44;100.00;101998.50;5014645;28;19924;-71
2022/10/07 10:47:02;;;;;;;;;;;;;;;14.47;100.00;102009.03;5032770;28;19925;-72
2022/10/07 10:49:29;;;;;;;;;;;;;;;14.50;100.00;102008.91;5026140;28;19921;-71
2022/10/07 10:52:10;;;;;;;;;;;;;;;14.54;100.00;101996.31;5016123;28;20549;-71
2022/10/07 10:54:53;;;;;;;;;;;;;;;14.57;100.00;102000.63;5032235;28;20302;-73
2022/10/07 10:57:22;;;;;;;;;;;;;;;14.63;100.00;101998.59;5027786;28;19929;-73
2022/10/07 10:59:56;;;;;;;;;;;;;;;14.72;100.00;101999.09;5030950;28;19929;-72
2022/10/07 11:02:37;;;;;;;;;;;;;;;14.76;100.00;101995.41;5029552;28;19935;-72
2022/10/07 11:05:03;;;;;;;;;;;;;;;14.80;100.00;102000.53;5032463;28;19936;-72
2022/10/07 11:07:30;;;;;;;;;;;;;;;14.83;100.00;101983.53;5034205;28;20476;-72
2022/10/07 11:09:58;;;;;;;;;;;;;;;14.84;100.00;101987.03;5025105;28;20479;-72
2022/10/07 11:12:25;;;;;;;;;;;;;;;14.82;100.00;101987.09;5029039;28;19931;-72
2022/10/07 11:14:52;;;;;;;;;;;;;;;14.83;100.00;101978.19;5024969;28;19929;-73
2022/10/07 11:17:18;;;;;;;;;;;;;;;14.85;100.00;101979.00;5030371;28;20705;-72
2022/10/07 11:19:50;;;;;;;;;;;;;;;14.90;100.00;101974.31;5031268;28;19929;-72
2022/10/07 11:22:16;;;;;;;;;;;;;;;14.92;100.00;101972.44;5047519;28;19929;-72
2022/10/07 11:24:43;;;;;;;;;;;;;;;14.91;100.00;101964.50;5048665;28;19931;-72
2022/10/07 11:27:19;;;;;;;;;;;;;;;14.93;100.00;101967.97;5030212;28;19996;-73
2022/10/07 11:29:51;;;;;;;;;;;;;;;14.95;100.00;101966.09;5017260;28;20338;-73
2022/10/07 11:32:16;;;;;;;;;;;;;;;14.97;100.00;101963.38;5031024;28;19987;-76
2022/10/07 11:34:50;;;;;;;;;;;;;;;14.98;100.00;101960.63;5029457;28;19963;-73
2022/10/07 11:37:17;;;;;;;;;;;;;;;14.98;100.00;101965.94;5016405;28;20482;-73
2022/10/07 11:39:43;;;;;;;;;;;;;;;14.91;100.00;101956.50;5031879;28;20280;-73
2022/10/07 11:42:22;;;;;;;;;;;;;;;14.88;100.00;101948.66;5031335;28;21449;-72
2022/10/07 11:44:50;;;;;;;;;;;;;;;14.84;100.00;101941.72;5026443;28;19935;-72
2022/10/07 11:47:17;;;;;;;;;;;;;;;14.86;100.00;101935.38;5031161;28;20276;-72
2022/10/07 11:49:54;;;;;;;;;;;;;;;14.89;100.00;101940.59;5011741;28;19924;-72
2022/10/07 11:52:25;;;;;;;;;;;;;;;14.90;100.00;101941.44;5030673;28;19968;-72
2022/10/07 11:54:52;;;;;;;;;;;;;;;14.90;100.00;101930.78;5048349;28;20027;-72
2022/10/07 11:57:18;;;;;;;;;;;;;;;14.88;100.00;101919.34;5026426;28;19960;-72
2022/10/07 11:59:44;;;;;;;;;;;;;;;14.88;100.00;101916.66;5045669;28;19933;-72
2022/10/07 12:02:28;;;;;;;;;;;;;;;14.91;100.00;101922.72;5047117;28;19929;-72
2022/10/07 12:04:54;;;;;;;;;;;;;;;14.94;100.00;101921.72;5030268;28;20401;-72
2022/10/07 12:07:29;;;;;;;;;;;;;;;14.97;100.00;101921.56;5028094;28;19929;-72
2022/10/07 12:10:17;;;;;;;;;;;;;;;15.02;100.00;101918.66;5047089;28;20020;-72
2022/10/07 12:12:43;;;;;;;;;;;;;;;15.02;100.00;101913.34;5027906;28;19929;-72
2022/10/07 12:15:27;;;;;;;;;;;;;;;15.01;100.00;101911.59;5025002;28;19933;-72
2022/10/07 12:18:16;;;;;;;;;;;;;;;14.99;100.00;101908.16;5029748;28;19925;-72
2022/10/07 12:20:45;;;;;;;;;;;;;;;14.98;100.00;101909.09;5029893;28;20019;-73
2022/10/07 12:23:27;;;;;;;;;;;;;;;15.00;100.00;101897.44;5008614;28;19927;-72
2022/10/07 12:26:24;;;;;;;;;;;;;;;14.97;100.00;101897.56;5044862;28;19948;-72
2022/10/07 12:28:50;;;;;;;;;;;;;;;14.94;100.00;101885.25;5029117;28;20299;-73
2022/10/07 12:31:16;;;;;;;;;;;;;;;14.93;100.00;101888.84;5024316;28;19924;-72
2022/10/07 12:33:45;;;;;;;;;;;;;;;14.94;100.00;101876.38;5029982;28;20383;-72
2022/10/07 12:36:16;;;;;;;;;;;;;;;14.95;100.00;101880.78;5028511;28;20038;-72
2022/10/07 12:38:41;;;;;;;;;;;;;;;14.94;100.00;101873.72;5026624;28;20410;-72
2022/10/07 12:41:10;;;;;;;;;;;;;;;14.91;100.00;101861.41;5024253;28;19921;-71
2022/10/07 12:43:35;;;;;;;;;;;;;;;14.91;100.00;101858.72;5027463;28;19932;-72
2022/10/07 12:46:04;;;;;;;;;;;;;;;14.93;100.00;101872.00;5022563;28;19928;-72